createdAt,value
2022-10-01T00:00:06.901Z,13.20
2022-10-01T00:03:11.872Z,13.20
2022-10-01T00:06:16.529Z,13.10
2022-10-01T00:09:18.381Z,13.10
2022-10-01T00:12:20.060Z,13.20
2022-10-01T00:15:21.825Z,13.20
2022-10-01T00:18:23.527Z,13.10
2022-10-01T00:21:28.805Z,13.10
2022-10-01T00:24:30.502Z,13.20
2022-10-01T00:27:32.193Z,13.20
2022-10-01T00:30:37.317Z,13.10
2022-10-01T00:33:42.780Z,13.10
2022-10-01T00:36:44.493Z,13.20
2022-10-01T00:39:46.151Z,13.10
2022-10-01T00:42:48.289Z,13.00
2022-10-01T00:45:51.709Z,12.90
2022-10-01T00:49:11.198Z,12.70
2022-10-01T00:52:18.031Z,12.50
2022-10-01T00:55:42.009Z,12.30
2022-10-01T00:58:43.909Z,12.10
2022-10-01T01:01:45.678Z,12.00
2022-10-01T01:04:48.125Z,11.80
2022-10-01T01:07:52.662Z,11.70
2022-10-01T01:11:23.111Z,11.70
2022-10-01T01:14:45.119Z,11.60
2022-10-01T01:18:22.251Z,11.50
2022-10-01T01:21:45.709Z,11.50
2022-10-01T01:24:55.858Z,11.40
2022-10-01T01:28:22.564Z,11.30
2022-10-01T01:31:34.616Z,11.30
2022-10-01T01:34:39.925Z,11.30
2022-10-01T01:37:51.625Z,11.20
2022-10-01T01:40:55.759Z,11.10
2022-10-01T01:44:01.016Z,11.10
2022-10-01T01:47:06.699Z,11.10
2022-10-01T01:50:10.787Z,11.10
2022-10-01T01:53:12.544Z,11.00
2022-10-01T01:56:14.191Z,11.00
2022-10-01T01:59:19.502Z,11.00
2022-10-01T02:02:28.039Z,11.00
2022-10-01T02:05:43.163Z,11.00
2022-10-01T02:09:07.981Z,10.90
2022-10-01T02:12:24.985Z,10.90
2022-10-01T02:15:36.900Z,10.90
2022-10-01T02:18:50.607Z,10.80
2022-10-01T02:22:27.484Z,10.80
2022-10-01T02:25:34.595Z,10.80
2022-10-01T02:28:39.516Z,10.80
2022-10-01T02:31:41.649Z,10.80
2022-10-01T02:34:46.040Z,10.80
2022-10-01T02:37:51.546Z,10.80
2022-10-01T02:40:55.559Z,10.70
2022-10-01T02:44:11.607Z,10.70
2022-10-01T02:47:36.727Z,10.70
2022-10-01T02:50:49.971Z,10.70
2022-10-01T02:53:58.240Z,10.70
2022-10-01T02:57:18.444Z,10.60
2022-10-01T03:00:23.212Z,10.60
2022-10-01T03:03:26.056Z,10.60
2022-10-01T03:06:27.973Z,10.60
2022-10-01T03:09:31.532Z,10.60
2022-10-01T03:12:33.365Z,10.50
2022-10-01T03:15:35.066Z,10.60
2022-10-01T03:18:36.780Z,10.60
2022-10-01T03:21:38.431Z,10.60
2022-10-01T03:24:40.159Z,10.60
2022-10-01T03:27:42.360Z,10.60
2022-10-01T03:30:44.989Z,10.60
2022-10-01T03:33:46.651Z,10.60
2022-10-01T03:36:48.769Z,10.70
2022-10-01T03:39:50.530Z,10.70
2022-10-01T03:42:52.184Z,10.70
2022-10-01T03:45:53.912Z,10.70
2022-10-01T03:48:57.590Z,10.70
2022-10-01T03:51:59.325Z,10.70
2022-10-01T03:55:00.943Z,10.70
2022-10-01T03:58:02.723Z,10.70
2022-10-01T04:01:04.515Z,10.70
2022-10-01T04:04:06.610Z,10.70
2022-10-01T04:07:08.248Z,10.70
2022-10-01T04:10:09.993Z,10.70
2022-10-01T04:13:11.978Z,10.60
2022-10-01T04:16:15.530Z,10.60
2022-10-01T04:19:17.283Z,10.60
2022-10-01T04:22:18.945Z,10.60
2022-10-01T04:25:20.610Z,10.60
2022-10-01T04:28:22.308Z,10.60
2022-10-01T04:31:27.238Z,10.60
2022-10-01T04:34:48.264Z,10.60
2022-10-01T04:38:03.416Z,10.60
2022-10-01T04:41:05.308Z,10.60
2022-10-01T04:44:06.989Z,10.60
2022-10-01T04:47:09.059Z,10.60
2022-10-01T04:50:10.747Z,10.60
2022-10-01T04:53:20.613Z,10.60
2022-10-01T04:56:22.384Z,10.70
2022-10-01T04:59:25.578Z,10.70
2022-10-01T05:02:29.316Z,10.70
2022-10-01T05:05:32.993Z,10.80
2022-10-01T05:08:41.283Z,10.70
2022-10-01T05:11:42.956Z,10.80
2022-10-01T05:14:44.598Z,10.80
2022-10-01T05:17:46.911Z,10.70
2022-10-01T05:20:48.534Z,10.80
2022-10-01T05:23:50.198Z,10.80
2022-10-01T05:26:53.998Z,10.80
2022-10-01T05:29:56.304Z,10.80
2022-10-01T05:33:00.463Z,10.80
2022-10-01T05:36:05.000Z,10.80
2022-10-01T05:39:06.697Z,10.80
2022-10-01T05:42:08.365Z,10.90
2022-10-01T05:45:10.489Z,10.90
2022-10-01T05:48:12.766Z,10.90
2022-10-01T05:51:15.116Z,10.90
2022-10-01T05:54:19.529Z,10.90
2022-10-01T05:57:21.186Z,10.90
2022-10-01T06:00:23.072Z,11.00
2022-10-01T06:03:26.945Z,11.00
2022-10-01T06:06:28.680Z,11.00
2022-10-01T06:09:30.383Z,11.00
2022-10-01T06:12:34.220Z,11.00
2022-10-01T06:15:38.130Z,11.10
2022-10-01T06:18:41.148Z,11.00
2022-10-01T06:21:42.789Z,11.00
2022-10-01T06:24:45.433Z,11.10
2022-10-01T06:28:00.963Z,12.50
2022-10-01T06:31:03.345Z,11.10
2022-10-01T06:34:05.171Z,11.10
2022-10-01T06:37:06.801Z,11.20
2022-10-01T06:40:08.983Z,11.20
2022-10-01T06:43:10.681Z,11.20
2022-10-01T06:46:12.476Z,11.30
2022-10-01T06:49:14.161Z,11.30
2022-10-01T06:52:34.619Z,11.30
2022-10-01T06:55:37.600Z,11.30
2022-10-01T06:58:39.292Z,11.40
2022-10-01T07:01:41.082Z,11.40
2022-10-01T07:04:42.791Z,11.40
2022-10-01T07:07:49.037Z,11.50
2022-10-01T07:10:50.675Z,11.50
2022-10-01T07:13:54.567Z,11.60
2022-10-01T07:16:56.539Z,11.60
2022-10-01T07:19:58.553Z,11.70
2022-10-01T07:23:01.692Z,11.60
2022-10-01T07:26:08.633Z,11.70
2022-10-01T07:29:10.594Z,11.70
2022-10-01T07:32:12.295Z,11.70
2022-10-01T07:35:14.390Z,11.80
2022-10-01T07:38:16.552Z,11.80
2022-10-01T07:41:18.333Z,11.80
2022-10-01T07:44:20.221Z,11.80
2022-10-01T07:47:22.176Z,11.90
2022-10-01T07:50:25.242Z,11.90
2022-10-01T07:53:27.513Z,11.90
2022-10-01T07:56:29.381Z,12.00
2022-10-01T07:59:31.255Z,12.10
2022-10-01T08:02:33.000Z,12.10
2022-10-01T08:05:36.569Z,12.20
2022-10-01T08:08:38.215Z,12.30
2022-10-01T08:11:39.840Z,12.40
2022-10-01T08:14:41.759Z,12.40
2022-10-01T08:17:44.542Z,12.40
2022-10-01T08:20:46.407Z,12.50
2022-10-01T08:23:48.401Z,12.60
2022-10-01T08:26:55.846Z,12.50
2022-10-01T08:29:57.544Z,12.60
2022-10-01T08:33:01.820Z,12.60
2022-10-01T08:36:04.882Z,12.80
2022-10-01T08:39:06.639Z,12.80
2022-10-01T08:42:35.053Z,12.80
2022-10-01T08:45:44.867Z,12.90
2022-10-01T08:48:57.316Z,13.00
2022-10-01T08:52:09.596Z,13.10
2022-10-01T08:55:16.031Z,13.10
2022-10-01T08:58:25.496Z,13.20
2022-10-01T09:01:28.328Z,13.40
2022-10-01T09:04:30.120Z,13.50
2022-10-01T09:07:56.443Z,13.60
2022-10-01T09:11:06.939Z,13.60
2022-10-01T09:14:17.484Z,13.70
2022-10-01T09:17:42.904Z,13.60
2022-10-01T09:20:58.854Z,13.60
2022-10-01T09:24:10.580Z,13.70
2022-10-01T09:27:23.099Z,13.60
2022-10-01T09:30:26.124Z,13.60
2022-10-01T09:33:38.169Z,13.60
2022-10-01T09:36:42.949Z,13.60
2022-10-01T09:40:03.093Z,13.60
2022-10-01T09:43:08.701Z,13.70
2022-10-01T09:46:14.994Z,13.80
2022-10-01T09:49:27.530Z,13.90
2022-10-01T09:52:38.065Z,13.90
2022-10-01T09:55:42.087Z,14.00
2022-10-01T09:58:50.443Z,14.20
2022-10-01T10:01:57.977Z,14.40
2022-10-01T10:05:13.895Z,14.60
2022-10-01T10:08:34.492Z,14.50
2022-10-01T10:11:36.607Z,14.50
2022-10-01T10:14:42.038Z,14.70
2022-10-01T10:17:50.100Z,14.90
2022-10-01T10:20:53.893Z,14.70
2022-10-01T10:24:04.523Z,14.70
2022-10-01T10:27:26.882Z,14.80
2022-10-01T10:30:29.121Z,14.80
2022-10-01T10:33:30.799Z,14.80
2022-10-01T10:36:35.902Z,14.90
2022-10-01T10:39:40.980Z,15.10
2022-10-01T10:42:51.531Z,15.30
2022-10-01T10:45:56.252Z,15.10
2022-10-01T10:49:05.902Z,15.20
2022-10-01T10:52:29.844Z,15.10
2022-10-01T10:55:31.939Z,15.10
2022-10-01T10:58:40.200Z,14.90
2022-10-01T11:01:43.454Z,14.90
2022-10-01T11:04:47.392Z,14.90
2022-10-01T11:07:53.680Z,15.20
2022-10-01T11:11:02.166Z,15.50
2022-10-01T11:14:36.137Z,15.60
2022-10-01T11:17:56.586Z,15.50
2022-10-01T11:21:26.022Z,15.40
2022-10-01T11:24:33.706Z,15.20
2022-10-01T11:28:03.369Z,15.10
2022-10-01T11:31:18.422Z,14.90
2022-10-01T11:34:37.809Z,14.80
2022-10-01T11:37:54.273Z,14.70
2022-10-01T11:41:03.752Z,14.60
2022-10-01T11:44:16.425Z,14.40
2022-10-01T11:47:31.724Z,13.00
2022-10-01T11:50:43.470Z,13.80
2022-10-01T11:53:54.402Z,13.60
2022-10-01T11:57:16.864Z,13.50
2022-10-01T12:00:18.627Z,13.50
2022-10-01T12:03:28.629Z,13.50
2022-10-01T12:06:43.303Z,13.50
2022-10-01T12:10:26.552Z,13.40
2022-10-01T12:13:41.157Z,13.40
2022-10-01T12:16:58.306Z,13.70
2022-10-01T12:20:04.440Z,13.80
2022-10-01T12:23:13.271Z,14.00
2022-10-01T12:26:55.709Z,14.20
2022-10-01T12:30:09.615Z,14.40
2022-10-01T12:33:32.812Z,14.60
2022-10-01T12:36:45.391Z,14.70
2022-10-01T12:39:54.079Z,14.90
2022-10-01T12:43:35.738Z,15.20
2022-10-01T12:46:52.708Z,15.50
2022-10-01T12:50:19.960Z,15.60
2022-10-01T12:53:49.786Z,15.50
2022-10-01T12:57:11.655Z,15.30
2022-10-01T13:00:31.796Z,15.30
2022-10-01T13:03:51.293Z,15.30
2022-10-01T13:07:03.155Z,15.20
2022-10-01T13:10:07.744Z,15.20
2022-10-01T13:13:22.054Z,15.30
2022-10-01T13:16:33.521Z,15.40
2022-10-01T13:19:48.035Z,15.20
2022-10-01T13:23:08.992Z,15.00
2022-10-01T13:26:17.415Z,15.00
2022-10-01T13:29:25.924Z,14.90
2022-10-01T13:32:35.328Z,15.00
2022-10-01T13:35:40.136Z,14.90
2022-10-01T13:38:44.176Z,15.00
2022-10-01T13:41:45.877Z,15.00
2022-10-01T13:44:53.212Z,15.10
2022-10-01T13:48:29.619Z,16.50
2022-10-01T13:51:39.151Z,18.10
2022-10-01T13:54:50.511Z,19.70
2022-10-01T13:58:05.656Z,18.70
2022-10-01T14:01:21.308Z,17.70
2022-10-01T14:04:38.243Z,16.90
2022-10-01T14:07:40.174Z,16.40
2022-10-01T14:11:09.717Z,16.10
2022-10-01T14:14:37.511Z,16.70
2022-10-01T14:17:40.007Z,17.20
2022-10-01T14:21:02.435Z,17.30
2022-10-01T14:24:12.869Z,17.30
2022-10-01T14:27:29.187Z,17.30
2022-10-01T14:31:00.045Z,17.40
2022-10-01T14:34:17.029Z,17.50
2022-10-01T14:37:19.870Z,17.40
2022-10-01T14:40:23.976Z,17.10
2022-10-01T14:43:30.930Z,21.00
2022-10-01T14:46:36.108Z,22.40
2022-10-01T14:49:38.003Z,21.60
2022-10-01T14:52:45.496Z,19.90
2022-10-01T14:55:49.796Z,18.70
2022-10-01T14:59:03.988Z,18.50
2022-10-01T15:02:19.087Z,18.60
2022-10-01T15:05:27.508Z,18.20
2022-10-01T15:08:47.642Z,19.10
2022-10-01T15:11:51.109Z,18.10
2022-10-01T15:14:56.555Z,17.90
2022-10-01T15:17:58.484Z,18.00
2022-10-01T15:21:06.318Z,19.30
2022-10-01T15:24:18.392Z,19.20
2022-10-01T15:27:21.453Z,18.30
2022-10-01T15:30:26.685Z,18.10
2022-10-01T15:33:31.315Z,17.50
2022-10-01T15:36:35.475Z,17.30
2022-10-01T15:39:40.157Z,17.00
2022-10-01T15:43:08.778Z,16.90
2022-10-01T15:46:28.956Z,16.80
2022-10-01T15:49:30.817Z,16.80
2022-10-01T15:52:54.590Z,16.80
2022-10-01T15:56:07.461Z,16.70
2022-10-01T15:59:17.411Z,16.70
2022-10-01T16:02:24.247Z,16.60
2022-10-01T16:05:37.720Z,16.50
2022-10-01T16:09:03.472Z,16.40
2022-10-01T16:12:20.821Z,16.40
2022-10-01T16:15:28.204Z,16.30
2022-10-01T16:18:32.731Z,16.20
2022-10-01T16:21:40.612Z,16.00
2022-10-01T16:24:46.273Z,15.80
2022-10-01T16:27:50.491Z,15.80
2022-10-01T16:30:52.231Z,15.70
2022-10-01T16:33:53.864Z,15.80
2022-10-01T16:36:55.587Z,15.70
2022-10-01T16:39:57.243Z,15.50
2022-10-01T16:43:00.299Z,15.50
2022-10-01T16:46:02.123Z,15.50
2022-10-01T16:49:10.915Z,15.40
2022-10-01T16:52:14.098Z,15.40
2022-10-01T16:55:22.953Z,15.50
2022-10-01T16:58:24.830Z,15.40
2022-10-01T17:01:26.739Z,15.30
2022-10-01T17:04:34.074Z,15.20
2022-10-01T17:07:35.925Z,15.00
2022-10-01T17:11:01.852Z,15.10
2022-10-01T17:14:03.521Z,14.80
2022-10-01T17:17:05.189Z,14.80
2022-10-01T17:20:08.073Z,14.60
2022-10-01T17:23:11.442Z,14.50
2022-10-01T17:26:13.164Z,14.30
2022-10-01T17:29:14.829Z,14.30
2022-10-01T17:32:19.175Z,14.10
2022-10-01T17:35:21.033Z,14.20
2022-10-01T17:38:23.222Z,14.10
2022-10-01T17:41:25.081Z,14.20
2022-10-01T17:44:26.843Z,14.20
2022-10-01T17:47:28.721Z,14.10
2022-10-01T17:50:30.363Z,14.00
2022-10-01T17:53:39.719Z,13.70
2022-10-01T17:56:44.122Z,13.60
2022-10-01T17:59:45.863Z,13.50
2022-10-01T18:02:47.643Z,13.40
2022-10-01T18:05:50.760Z,13.40
2022-10-01T18:08:55.914Z,13.40
2022-10-01T18:11:58.062Z,13.40
2022-10-01T18:15:00.855Z,13.40
2022-10-01T18:19:45.725Z,13.20
2022-10-01T18:21:24.204Z,13.20
2022-10-01T18:24:25.933Z,13.20
2022-10-01T18:27:27.594Z,13.20
2022-10-01T18:30:29.433Z,13.30
2022-10-01T18:33:31.165Z,13.20
2022-10-01T18:36:51.139Z,13.20
2022-10-01T18:40:20.762Z,13.10
2022-10-01T18:43:24.999Z,13.30
2022-10-01T18:46:38.924Z,13.20
2022-10-01T18:50:15.746Z,13.20
2022-10-01T18:53:46.393Z,13.10
2022-10-01T18:56:54.073Z,13.00
2022-10-01T19:00:21.713Z,13.00
2022-10-01T19:03:53.433Z,13.00
2022-10-01T19:07:24.950Z,13.00
2022-10-01T19:10:48.738Z,13.00
2022-10-01T19:14:14.642Z,13.00
2022-10-01T19:17:41.328Z,13.00
2022-10-01T19:21:14.555Z,13.00
2022-10-01T19:24:47.657Z,13.10
2022-10-01T19:27:58.221Z,13.10
2022-10-01T19:31:19.686Z,13.10
2022-10-01T19:34:50.468Z,13.20
2022-10-01T19:37:58.117Z,13.30
2022-10-01T19:41:12.291Z,13.20
2022-10-01T19:44:39.771Z,13.20
2022-10-01T19:47:46.765Z,13.20
2022-10-01T19:50:54.754Z,13.20
2022-10-01T19:54:01.316Z,13.10
2022-10-01T19:57:17.113Z,13.10
2022-10-01T20:00:21.760Z,12.90
2022-10-01T20:03:26.589Z,14.00
2022-10-01T20:06:33.806Z,12.90
2022-10-01T20:09:45.793Z,12.80
2022-10-01T20:13:14.433Z,12.90
2022-10-01T20:16:36.154Z,12.90
2022-10-01T20:20:01.467Z,12.80
2022-10-01T20:23:21.891Z,12.80
2022-10-01T20:26:42.408Z,12.90
2022-10-01T20:29:52.116Z,12.90
2022-10-01T20:33:14.010Z,12.80
2022-10-01T20:36:25.933Z,12.90
2022-10-01T20:39:34.033Z,12.80
2022-10-01T20:42:41.609Z,12.80
2022-10-01T20:45:47.090Z,12.80
2022-10-01T20:48:56.637Z,12.70
2022-10-01T20:52:13.405Z,12.70
2022-10-01T20:55:26.392Z,12.70
2022-10-01T20:58:50.179Z,12.60
2022-10-01T21:02:16.162Z,12.60
2022-10-01T21:05:26.690Z,12.60
2022-10-01T21:08:32.865Z,12.60
2022-10-01T21:11:52.704Z,12.50
2022-10-01T21:14:55.925Z,12.60
2022-10-01T21:18:11.636Z,12.60
2022-10-01T21:21:19.474Z,12.60
2022-10-01T21:24:44.071Z,12.50
2022-10-01T21:28:18.515Z,12.40
2022-10-01T21:31:38.549Z,12.40
2022-10-01T21:35:30.597Z,12.30
2022-10-01T21:38:58.679Z,12.30
2022-10-01T21:42:16.490Z,12.40
2022-10-01T21:45:46.130Z,12.40
2022-10-01T21:49:12.396Z,12.30
2022-10-01T21:52:34.757Z,12.30
2022-10-01T21:56:08.750Z,12.30
2022-10-01T21:59:59.333Z,12.30
2022-10-01T22:03:09.955Z,12.30
2022-10-01T22:06:16.184Z,12.40
2022-10-01T22:09:59.612Z,12.30
2022-10-01T22:13:08.693Z,12.30
2022-10-01T22:16:14.330Z,12.30
2022-10-01T22:19:25.544Z,12.30
2022-10-01T22:22:38.556Z,12.30
2022-10-01T22:26:03.413Z,12.30
2022-10-01T22:29:10.811Z,12.30
2022-10-01T22:32:15.259Z,12.30
2022-10-01T22:35:32.610Z,12.30
2022-10-01T22:38:39.601Z,12.20
2022-10-01T22:41:48.810Z,12.20
2022-10-01T22:44:50.488Z,12.20
2022-10-01T22:48:13.497Z,12.20
2022-10-01T22:51:29.194Z,12.10
2022-10-01T22:54:58.285Z,12.20
2022-10-01T22:58:06.220Z,12.20
2022-10-01T23:01:33.898Z,12.20
2022-10-01T23:05:01.443Z,12.20
2022-10-01T23:08:35.798Z,12.20
2022-10-01T23:12:24.177Z,12.20
2022-10-01T23:15:37.805Z,12.30
2022-10-01T23:19:17.436Z,12.30
2022-10-01T23:22:46.405Z,12.20
2022-10-01T23:26:26.452Z,12.30
2022-10-01T23:29:46.881Z,12.30
2022-10-01T23:33:00.429Z,12.30
2022-10-01T23:36:20.731Z,12.30
2022-10-01T23:39:25.107Z,12.20
2022-10-01T23:42:42.189Z,12.20
2022-10-01T23:45:49.252Z,12.20
2022-10-01T23:49:04.916Z,12.20
2022-10-01T23:52:25.258Z,12.30
2022-10-01T23:55:59.213Z,12.30
2022-10-01T23:59:03.084Z,12.30
